• Join FlightAware (Why Join?)
  • Login
  • US Flag 
07:34PM EST


 

Airport Tracker/Info


-or-


 

Live Flight TrackerFlight Track Log ✈ DAL6067 ✈ 13-Apr-2013 ✈ KDTW - KCMH

Flight Track Log - Related Links

Times and Time Zones

All times are in EDT time to prevent confusion due to time zone crossing. See the DAL6067 flight status page for this flight to view local times or setup timezone preferences in your user account.

Time Position Orientation Groundspeed Altitude Reporting Facility
EDT Latitude Longitude Course Direction KTS MPH feet Rate Location/Type
02:46PM 42.1994 -83.3553 186° South 152 175 1,600  Level Cleveland Center
02:47PM 42.1703 -83.3597 186° South 193 222 2,800 2,160 Climbing Cleveland Center
02:48PM 42.1178 -83.3714 189° South 219 252 5,000 2,460 Climbing Cleveland Center
02:49PM 42.0386 -83.3706 180° South 233 268 8,300 2,280 Climbing Cleveland Center
02:50PM 41.9847 -83.3628 174° South 252 290 9,900 1,500 Climbing Cleveland Center
02:51PM 41.9036 -83.3564 177° South 268 308 11,100 1,440 Climbing Cleveland Center
02:52PM 41.8078 -83.3522 178° South 293 337 12,800 1,620 Climbing Cleveland Center
02:53PM 41.7161 -83.3428 176° South 318 366 14,400 1,320 Climbing Cleveland Center
02:54PM 41.6164 -83.3356 177° South 335 386 15,500 780 Climbing Cleveland Center
02:55PM 41.5144 -83.3258 176° South 361 415 16,000 300 Climbing Cleveland Center
02:56PM 41.4039 -83.3183 177° South 384 442 16,100  Climbing Cleveland Center
02:57PM 41.2978 -83.3111 177° South 384 442 16,100  Level Cleveland Center
02:58PM 41.1939 -83.3014 176° South 384 442 16,100 -60 Level Cleveland Center
02:59PM 41.0897 -83.2942 177° South 384 442 16,000 -300 Descending Cleveland Center
03:00PM 40.9836 -83.2817 175° South 384 442 15,500 -960 Descending Cleveland Center
03:01PM 40.8881 -83.2722 176° South 384 442 14,100 -1,560 Descending Cleveland Center
03:02PM 40.7922 -83.2681 178° South 362 417 12,400 -1,740 Descending Cleveland Center
03:03PM 40.6944 -83.2558 175° South 362 417 10,700 -1,140 Descending Cleveland Center
03:04PM 40.5836 -83.2506 178° South 346 398 9,900 -360 Descending Indianapolis Center
03:05PM 40.4992 -83.2086 159° South 354 407 10,000  Climbing Indianapolis Center
03:05PM 40.4931 -83.2081 176° South 354 407 9,900  Descending Indianapolis Center
03:06PM 40.4306 -83.2306 195° South 305 351 10,000  Climbing Indianapolis Center
03:06PM 40.3944 -83.2253 174° South 315 362 9,900  Descending Indianapolis Center
03:07PM 40.3281 -83.1992 163° South 339 390 10,000  Climbing Indianapolis Center
03:07PM 40.3072 -83.1792 144° Southeast 350 403 9,900  Descending Indianapolis Center
03:08PM 40.2467 -83.1347 151° Southeast 350 403 10,000  Climbing Indianapolis Center
03:08PM 40.2244 -83.1225 157° South 330 380 9,900 -480 Descending Indianapolis Center
03:09PM 40.1758 -83.1019 162° South 275 316 9,600 -780 Descending Indianapolis Center
03:09PM 40.1517 -83.0883 157° South 282 325 9,100 -1,200 Descending Indianapolis Center
03:10PM 40.1086 -83.0422 141° Southeast 313 360 8,300 -1,200 Descending Indianapolis Center
03:10PM 40.1064 -83.0081 95° East 306 352 7,900 -660 Descending Indianapolis Center
03:11PM 40.1044 -82.9192 92° East 286 329 7,600 -720 Descending Indianapolis Center
03:12PM 40.1028 -82.8208 91° East 282 325 6,700 -1,080 Descending Indianapolis Center
03:12PM 40.1011 -82.7961 95° East 286 329 6,300 -1,320 Descending Indianapolis Center
03:13PM 40.0903 -82.7239 101° East 262 302 5,400 -1,200 Descending Indianapolis Center
03:13PM 40.0825 -82.7056 119° Southeast 266 306 5,100 -1,320 Descending Indianapolis Center
03:14PM 40.0378 -82.6964 171° South 208 239 4,100 -1,380 Descending Indianapolis Center
03:14PM 40.0222 -82.6942 174° South 231 266 3,700 -1,200 Descending Indianapolis Center
03:15PM 39.9958 -82.7272 224° Southwest 179 206 2,900 -1,020 Descending Indianapolis Center
03:15PM 39.9958 -82.7406 270° West 191 220 2,700 -540 Descending Indianapolis Center